createdAt,value
2018-04-13T00:01:38.780Z,5.43
2018-04-13T00:05:41.372Z,6.03
2018-04-13T00:09:44.059Z,4.43
2018-04-13T00:13:46.573Z,4.30
2018-04-13T00:17:49.412Z,4.90
2018-04-13T00:21:51.942Z,5.10
2018-04-13T00:25:54.491Z,5.00
2018-04-13T00:29:57.006Z,5.13
2018-04-13T00:33:59.546Z,4.93
2018-04-13T00:38:02.070Z,5.73
2018-04-13T00:42:05.398Z,5.50
2018-04-13T00:46:07.903Z,4.70
2018-04-13T00:50:11.223Z,5.47
2018-04-13T00:54:14.502Z,4.73
2018-04-13T00:58:17.047Z,5.40
2018-04-13T01:02:19.599Z,5.47
2018-04-13T01:06:22.211Z,5.80
2018-04-13T01:10:24.723Z,6.57
2018-04-13T01:14:27.280Z,6.00
2018-04-13T01:18:29.794Z,5.80
2018-04-13T01:22:32.348Z,5.20
2018-04-13T01:26:34.854Z,6.27
2018-04-13T01:30:41.138Z,5.93
2018-04-13T01:34:43.647Z,5.60
2018-04-13T01:38:46.190Z,6.40
2018-04-13T01:42:49.476Z,7.07
2018-04-13T01:46:55.900Z,7.57
2018-04-13T01:50:58.372Z,8.23
2018-04-13T01:55:00.941Z,8.40
2018-04-13T01:59:03.478Z,6.37
2018-04-13T02:03:06.014Z,5.70
2018-04-13T02:07:09.289Z,5.67
2018-04-13T02:11:11.919Z,5.77
2018-04-13T02:15:14.431Z,9.13
2018-04-13T02:19:16.979Z,9.10
2018-04-13T02:23:19.490Z,8.87
2018-04-13T02:27:22.031Z,8.80
2018-04-13T02:31:24.557Z,10.17
2018-04-13T02:35:27.179Z,9.77
2018-04-13T02:39:30.458Z,10.10
2018-04-13T02:43:33.186Z,11.00
2018-04-13T02:47:35.668Z,11.47
2018-04-13T02:51:38.520Z,9.80
2018-04-13T02:55:47.536Z,8.30
2018-04-13T02:59:50.093Z,9.83
2018-04-13T03:03:52.615Z,10.00
2018-04-13T03:07:55.158Z,10.23
2018-04-13T03:12:04.284Z,10.83
2018-04-13T03:16:06.854Z,10.27
2018-04-13T03:20:09.365Z,9.67
2018-04-13T03:24:11.906Z,9.03
2018-04-13T03:28:14.436Z,8.60
2018-04-13T03:32:16.978Z,8.70
2018-04-13T03:36:20.275Z,7.97
2018-04-13T03:40:23.199Z,8.10
2018-04-13T03:44:25.753Z,8.47
2018-04-13T03:48:29.041Z,10.73
2018-04-13T03:52:31.550Z,11.00
2018-04-13T03:56:34.118Z,11.37
2018-04-13T04:00:36.641Z,11.00
2018-04-13T04:04:39.279Z,11.83
2018-04-13T04:08:42.558Z,11.30
2018-04-13T04:12:45.191Z,12.37
2018-04-13T04:16:48.721Z,15.33
2018-04-13T04:21:02.943Z,16.50
2018-04-13T04:25:12.162Z,17.10
2018-04-13T04:29:14.718Z,16.67
2018-04-13T04:33:18.147Z,17.37
2018-04-13T04:37:20.691Z,14.17
2018-04-13T04:41:23.239Z,12.93
2018-04-13T04:45:26.079Z,15.40
2018-04-13T04:49:28.632Z,18.67
2018-04-13T04:53:31.178Z,21.03
2018-04-13T04:57:33.694Z,19.47
2018-04-13T05:01:36.623Z,21.07
2018-04-13T05:05:39.158Z,20.53
2018-04-13T05:09:41.898Z,18.47
2018-04-13T05:13:44.412Z,17.67
2018-04-13T05:17:46.959Z,17.03
2018-04-13T05:21:49.484Z,15.73
2018-04-13T05:25:52.066Z,17.90
2018-04-13T05:29:54.592Z,21.43
2018-04-13T05:33:57.134Z,21.70
2018-04-13T05:42:10.426Z,24.33
2018-04-13T05:50:21.606Z,23.20
2018-04-13T06:02:43.118Z,21.80
2018-04-13T06:06:45.966Z,21.27
2018-04-13T06:10:48.482Z,21.63
2018-04-13T06:14:51.026Z,21.20
2018-04-13T06:18:54.328Z,20.57
2018-04-13T06:22:56.871Z,20.80
2018-04-13T06:27:00.155Z,20.10
2018-04-13T06:31:02.708Z,20.70
2018-04-13T06:35:05.250Z,20.17
2018-04-13T06:39:07.796Z,17.73
2018-04-13T06:43:11.377Z,17.50
2018-04-13T06:47:13.939Z,19.17
2018-04-13T06:51:16.503Z,19.20
2018-04-13T06:55:19.151Z,20.37
2018-04-13T06:59:22.443Z,18.97
2018-04-13T07:03:25.219Z,20.27
2018-04-13T07:07:27.751Z,18.00
2018-04-13T07:11:31.258Z,18.83
2018-04-13T07:15:34.328Z,17.57
2018-04-13T07:28:09.206Z,18.13
2018-04-13T07:32:13.186Z,18.00
2018-04-13T07:40:25.283Z,23.33
2018-04-13T07:44:27.831Z,25.00
2018-04-13T07:48:30.342Z,21.57
2018-04-13T07:52:33.192Z,17.67
2018-04-13T07:56:36.418Z,16.33
2018-04-13T08:00:38.978Z,16.83
2018-04-13T08:04:41.519Z,18.00
2018-04-13T08:08:44.115Z,16.30
2018-04-13T08:12:47.595Z,17.83
2018-04-13T08:16:50.695Z,18.30
2018-04-13T08:25:04.627Z,18.10
2018-04-13T08:29:07.142Z,19.47
2018-04-13T08:33:10.455Z,20.30
2018-04-13T08:37:13.743Z,19.93
2018-04-13T08:41:16.292Z,18.27
2018-04-13T08:45:19.580Z,18.33
2018-04-13T08:49:22.145Z,18.03
2018-04-13T08:53:24.674Z,17.40
2018-04-13T08:57:27.531Z,17.20
2018-04-13T09:01:30.126Z,20.07
2018-04-13T09:05:35.335Z,17.47
2018-04-13T09:09:37.878Z,17.43
2018-04-13T09:13:40.443Z,16.83
2018-04-13T09:17:47.482Z,16.10
2018-04-13T09:21:50.039Z,21.23
2018-04-13T09:25:53.318Z,18.57
2018-04-13T09:29:55.874Z,18.00
2018-04-13T09:33:59.157Z,17.53
2018-04-13T09:38:01.731Z,17.47
2018-04-13T09:42:04.275Z,18.47
2018-04-13T09:46:06.828Z,20.23
2018-04-13T09:50:09.358Z,19.83
2018-04-13T09:54:11.902Z,19.50
2018-04-13T09:58:16.440Z,18.93
2018-04-13T10:02:21.089Z,17.07
2018-04-13T10:06:23.617Z,17.60
2018-04-13T10:10:26.183Z,17.00
2018-04-13T10:14:28.699Z,16.90
2018-04-13T10:18:31.263Z,18.20
2018-04-13T10:22:34.541Z,23.63
2018-04-13T10:26:37.670Z,19.80
2018-04-13T10:30:40.540Z,18.77
2018-04-13T10:34:43.143Z,19.77
2018-04-13T10:38:45.643Z,19.13
2018-04-13T10:42:48.194Z,19.37
2018-04-13T10:46:55.390Z,18.30
2018-04-13T10:50:58.027Z,21.47
2018-04-13T10:55:00.574Z,21.13
2018-04-13T10:59:03.211Z,20.00
2018-04-13T11:03:05.726Z,21.27
2018-04-13T11:07:08.266Z,19.60
2018-04-13T11:11:11.662Z,19.73
2018-04-13T11:15:14.581Z,24.03
2018-04-13T11:19:17.095Z,22.43
2018-04-13T11:23:20.502Z,20.83
2018-04-13T11:27:25.228Z,19.47
2018-04-13T11:31:27.776Z,18.03
2018-04-13T11:35:30.304Z,17.30
2018-04-13T11:39:33.699Z,18.60
2018-04-13T11:43:36.217Z,18.37
2018-04-13T11:47:38.907Z,17.57
2018-04-13T11:51:41.419Z,18.23
2018-04-13T11:55:43.970Z,21.37
2018-04-13T11:59:46.487Z,21.73
2018-04-13T12:03:49.039Z,22.90
2018-04-13T12:07:51.562Z,20.87
2018-04-13T12:11:54.106Z,22.90
2018-04-13T12:15:56.711Z,22.77
2018-04-13T12:19:59.271Z,22.37
2018-04-13T12:24:01.796Z,22.07
2018-04-13T12:28:04.450Z,20.63
2018-04-13T12:32:06.969Z,19.20
2018-04-13T12:36:09.518Z,18.30
2018-04-13T12:40:12.039Z,17.87
2018-04-13T12:44:14.597Z,21.87
2018-04-13T12:48:17.118Z,16.53
2018-04-13T12:52:19.770Z,13.27
2018-04-13T12:56:22.334Z,13.10
2018-04-13T13:00:25.931Z,12.43
2018-04-13T13:04:41.582Z,11.97
2018-04-13T13:08:45.045Z,10.40
2018-04-13T13:12:48.293Z,10.83
2018-04-13T13:16:57.531Z,9.60
2018-04-13T13:21:03.043Z,8.63
2018-04-13T13:25:05.595Z,8.40
2018-04-13T13:29:08.122Z,7.70
2018-04-13T13:33:15.696Z,6.00
2018-04-13T13:37:18.211Z,5.93
2018-04-13T13:41:21.516Z,5.63
2018-04-13T13:45:24.030Z,4.53
2018-04-13T13:49:26.564Z,4.27
2018-04-13T13:53:29.104Z,3.40
2018-04-13T13:57:32.556Z,2.90
2018-04-13T14:01:35.105Z,2.87
2018-04-13T14:05:37.647Z,2.47
2018-04-13T14:09:40.654Z,2.50
2018-04-13T14:13:48.505Z,1.87
2018-04-13T14:17:53.163Z,2.20
2018-04-13T14:21:55.726Z,1.90
2018-04-13T14:25:58.239Z,2.40
2018-04-13T14:30:00.776Z,2.30
2018-04-13T14:34:03.549Z,2.57
2018-04-13T14:38:06.191Z,2.13
2018-04-13T14:42:13.499Z,2.23
2018-04-13T14:46:16.066Z,2.73
2018-04-13T14:50:18.585Z,2.50
2018-04-13T14:54:21.139Z,2.40
2018-04-13T14:58:23.668Z,2.70
2018-04-13T15:02:27.008Z,2.50
2018-04-13T15:06:30.346Z,3.17
2018-04-13T15:10:32.895Z,3.23
2018-04-13T15:14:35.406Z,3.37
2018-04-13T15:18:38.046Z,4.27
2018-04-13T15:22:41.340Z,3.73
2018-04-13T15:26:43.879Z,4.03
2018-04-13T15:30:46.427Z,3.80
2018-04-13T15:34:50.671Z,3.77
2018-04-13T15:38:53.199Z,3.40
2018-04-13T15:42:56.699Z,3.97
2018-04-13T15:47:00.242Z,4.07
2018-04-13T15:51:02.786Z,4.50
2018-04-13T15:55:05.323Z,6.83
2018-04-13T15:59:07.873Z,5.50
2018-04-13T16:03:10.388Z,4.57
2018-04-13T16:07:12.934Z,4.80
2018-04-13T16:11:15.471Z,3.87
2018-04-13T16:15:19.079Z,3.23
2018-04-13T16:19:21.590Z,3.87
2018-04-13T16:23:24.146Z,4.47
2018-04-13T16:27:27.425Z,4.60
2018-04-13T16:31:29.982Z,3.70
2018-04-13T16:35:40.476Z,3.67
2018-04-13T16:39:43.872Z,3.73
2018-04-13T16:43:46.389Z,4.30
2018-04-13T16:47:48.935Z,4.13
2018-04-13T16:51:53.431Z,3.60
2018-04-13T16:55:59.770Z,3.60
2018-04-13T17:00:07.953Z,3.80
2018-04-13T17:04:10.883Z,3.47
2018-04-13T17:08:16.539Z,3.90
2018-04-13T17:12:24.051Z,4.17
2018-04-13T17:16:26.567Z,4.00
2018-04-13T17:20:29.200Z,7.33
2018-04-13T17:24:31.731Z,3.97
2018-04-13T17:28:42.585Z,3.80
2018-04-13T17:32:45.102Z,4.30
2018-04-13T17:36:47.637Z,4.17
2018-04-13T17:40:54.202Z,4.30
2018-04-13T17:49:24.995Z,9.60
2018-04-13T17:53:28.570Z,7.77
2018-04-13T17:57:33.871Z,8.00
2018-04-13T18:01:36.425Z,8.27
2018-04-13T18:05:38.955Z,7.63
2018-04-13T18:09:41.584Z,8.30
2018-04-13T18:13:44.143Z,7.77
2018-04-13T18:17:46.795Z,6.83
2018-04-13T18:21:49.555Z,8.07
2018-04-13T18:25:52.102Z,9.03
2018-04-13T18:29:55.390Z,9.40
2018-04-13T18:34:00.103Z,15.77
2018-04-13T18:38:02.644Z,10.67
2018-04-13T18:42:05.202Z,25.10
2018-04-13T18:46:08.529Z,18.70
2018-04-13T18:50:11.094Z,16.47
2018-04-13T18:54:14.608Z,11.23
2018-04-13T18:58:17.198Z,9.53
2018-04-13T19:02:20.736Z,14.50
2018-04-13T19:06:28.595Z,14.00
2018-04-13T19:10:31.119Z,9.50
2018-04-13T19:14:34.731Z,9.33
2018-04-13T19:18:37.246Z,9.90
2018-04-13T19:22:41.600Z,11.97
2018-04-13T19:26:45.986Z,11.10
2018-04-13T19:30:48.570Z,11.07
2018-04-13T19:34:54.289Z,12.30
2018-04-13T19:38:58.105Z,11.37
2018-04-13T19:43:00.671Z,13.00
2018-04-13T19:47:05.503Z,12.27
2018-04-13T19:51:08.038Z,13.30
2018-04-13T19:55:11.450Z,12.37
2018-04-13T19:59:13.979Z,14.17
2018-04-13T20:03:19.323Z,17.03
2018-04-13T20:07:21.878Z,11.80
2018-04-13T20:11:24.427Z,13.23
2018-04-13T20:15:26.968Z,10.67
2018-04-13T20:19:36.211Z,9.13
2018-04-13T20:23:38.908Z,15.97
2018-04-13T20:27:42.480Z,14.13
2018-04-13T20:31:44.996Z,7.73
2018-04-13T20:35:47.672Z,8.10
2018-04-13T20:39:52.950Z,8.60
2018-04-13T20:43:55.507Z,7.87
2018-04-13T20:47:58.042Z,9.13
2018-04-13T20:52:00.679Z,9.67
2018-04-13T20:56:03.243Z,8.27
2018-04-13T21:00:05.786Z,7.53
2018-04-13T21:04:08.318Z,10.27
2018-04-13T21:08:11.895Z,13.93
2018-04-13T21:12:18.771Z,16.40
2018-04-13T21:16:21.900Z,21.43
2018-04-13T21:20:27.682Z,13.20
2018-04-13T21:24:30.385Z,10.77
2018-04-13T21:28:32.946Z,12.67
2018-04-13T21:32:36.352Z,13.90
2018-04-13T21:36:39.849Z,15.73
2018-04-13T21:40:42.399Z,15.57
2018-04-13T21:44:44.956Z,12.20
2018-04-13T21:48:47.555Z,9.77
2018-04-13T21:52:50.081Z,8.67
2018-04-13T21:56:53.618Z,8.87
2018-04-13T22:00:56.143Z,9.70
2018-04-13T22:04:59.459Z,10.03
2018-04-13T22:09:01.972Z,10.03
2018-04-13T22:13:16.367Z,10.20
2018-04-13T22:17:18.910Z,10.77
2018-04-13T22:21:21.955Z,11.63
2018-04-13T22:25:24.545Z,12.30
2018-04-13T22:29:27.476Z,11.10
2018-04-13T22:33:29.995Z,11.73
2018-04-13T22:37:32.639Z,13.70
2018-04-13T22:41:35.171Z,11.20
2018-04-13T22:45:37.741Z,11.50
2018-04-13T22:49:41.262Z,10.43
2018-04-13T22:53:43.887Z,9.97
2018-04-13T22:57:46.420Z,9.13
2018-04-13T23:01:48.959Z,9.10
2018-04-13T23:05:51.475Z,10.03
2018-04-13T23:09:54.018Z,9.83
2018-04-13T23:13:56.532Z,10.37
2018-04-13T23:17:59.086Z,12.23
2018-04-13T23:22:01.603Z,11.83
2018-04-13T23:26:04.911Z,12.53
2018-04-13T23:30:07.432Z,11.90
2018-04-13T23:34:10.747Z,11.47
2018-04-13T23:38:13.267Z,10.13
2018-04-13T23:42:17.052Z,12.10
2018-04-13T23:46:19.570Z,11.83
2018-04-13T23:50:22.425Z,12.73
2018-04-13T23:54:24.935Z,10.80
2018-04-13T23:58:27.595Z,12.43
